CSM8 weather

Sept-Îles/Lac Des Rapides Seaplane Base
Quebec, Canada

Public forecast

Using degrees Celsius for public forecast. Weather courtesy of forecast.io.

Closest aviation weather report (METAR) to Sept-Îles/Lac Des Rapides Seaplane Base

Closest report is Sept-Îles Airport, 7.3 nm (13.6 km) SE. Retrieved 2020/06/02 05:00 UTC (58 minutes ago):

CYZV 020500Z 35007KT 15SM OVC090 07/01 A2989 RMK AC8 SLP126

Closest aviation forecast (TAF) to Sept-Îles/Lac Des Rapides Seaplane Base

Closest forecast is Sept-Îles Airport, 7.3 nm (13.6 km) SE. Retrieved 2020-06-02 00:42 UTC (5 hours ago):

TAF CYZV 012336Z 0200/0224 01010KT P6SM SCT050 BKN240 TEMPO 0200/0203 BKN050 BECMG 0212/0214 34012KT RMK NXT FCST BY 020600Z